Time;durP1;ratioP1;P1;durP2;ratioP2;P2;SDS_P1;SDS_P2;PMS_P1;PMS_P2;Temp;Humidity;BMP_temperature;BMP_pressure;BME280_temperature;BME280_humidity;BME280_pressure;Samples;Min_cycle;Max_cycle;Signal;HPM_P1;HPM_P2
2023/10/26 00:01:44;;;;;;;15.60;13.10;;;10.40;1.00;;;;;;5151896;27;20560;-72
2023/10/26 00:04:11;;;;;;;14.07;12.77;;;10.40;1.00;;;;;;5150844;27;20508;-72
2023/10/26 00:06:39;;;;;;;14.00;12.70;;;10.40;1.00;;;;;;5149105;27;20447;-74
2023/10/26 00:09:06;;;;;;;13.60;12.30;;;10.40;1.00;;;;;;5148742;27;20460;-75
2023/10/26 00:11:33;;;;;;;14.53;13.13;;;10.40;1.00;;;;;;5151942;27;21392;-71
2023/10/26 00:14:00;;;;;;;14.03;12.70;;;10.40;1.00;;;;;;5141597;27;20594;-70
2023/10/26 00:16:27;;;;;;;14.43;12.07;;;10.40;1.00;;;;;;5124559;27;20445;-71
2023/10/26 00:18:54;;;;;;;13.50;12.30;;;10.50;1.00;;;;;;5127659;27;20445;-71
2023/10/26 00:21:21;;;;;;;14.20;12.90;;;10.40;1.00;;;;;;5128716;27;20468;-71
2023/10/26 00:23:50;;;;;;;12.90;11.67;;;10.50;1.00;;;;;;5147944;27;20527;-72
2023/10/26 00:26:17;;;;;;;14.30;12.90;;;10.50;1.00;;;;;;5150129;27;20463;-73
2023/10/26 00:28:44;;;;;;;14.03;12.70;;;10.50;1.00;;;;;;5135171;27;20446;-72
2023/10/26 00:31:11;;;;;;;15.10;13.70;;;10.40;1.00;;;;;;5136311;27;20472;-72
2023/10/26 00:33:38;;;;;;;14.83;13.40;;;10.50;1.00;;;;;;5125156;27;20436;-72
2023/10/26 00:36:06;;;;;;;19.83;13.83;;;10.40;1.00;;;;;;5131021;27;20441;-72
2023/10/26 00:38:33;;;;;;;14.03;12.60;;;10.40;1.00;;;;;;5130006;27;20449;-72
2023/10/26 00:41:01;;;;;;;14.33;13.03;;;10.40;1.00;;;;;;5147638;27;21409;-71
2023/10/26 00:43:28;;;;;;;14.07;12.70;;;10.40;1.00;;;;;;5149138;27;20473;-72
2023/10/26 00:45:55;;;;;;;15.13;13.67;;;10.40;1.00;;;;;;5130343;27;20457;-71
2023/10/26 00:48:23;;;;;;;15.77;13.27;;;10.40;1.00;;;;;;5131741;27;20444;-73
2023/10/26 00:50:50;;;;;;;14.17;12.70;;;10.30;1.00;;;;;;5143811;27;20432;-73
2023/10/26 00:53:19;;;;;;;14.50;13.10;;;10.40;1.00;;;;;;5149678;27;21034;-71
2023/10/26 00:55:50;;;;;;;14.67;13.27;;;10.40;1.00;;;;;;5149897;27;20412;-72
2023/10/26 00:58:19;;;;;;;15.57;13.97;;;10.40;1.00;;;;;;5146420;27;20452;-71
2023/10/26 01:00:46;;;;;;;13.97;12.67;;;10.30;1.00;;;;;;5131492;27;20480;-74
2023/10/26 01:03:14;;;;;;;14.40;13.00;;;10.40;1.00;;;;;;5137515;27;20464;-74
2023/10/26 01:05:41;;;;;;;14.40;13.10;;;10.40;1.00;;;;;;5149717;27;20471;-72
2023/10/26 01:08:08;;;;;;;14.73;13.23;;;10.40;1.00;;;;;;5151816;27;21186;-72
2023/10/26 01:10:36;;;;;;;14.33;13.00;;;10.40;1.00;;;;;;5131210;27;20460;-71
2023/10/26 01:13:04;;;;;;;16.00;14.40;;;10.40;1.00;;;;;;5127191;27;20464;-70
2023/10/26 01:15:32;;;;;;;14.17;12.87;;;10.40;1.00;;;;;;5148804;27;20452;-72
2023/10/26 01:17:59;;;;;;;15.20;13.67;;;10.30;1.00;;;;;;5142815;27;20489;-72
2023/10/26 01:20:26;;;;;;;15.70;14.10;;;10.30;1.00;;;;;;5139253;27;21155;-72
2023/10/26 01:22:54;;;;;;;15.87;14.40;;;10.40;1.00;;;;;;5151100;27;20527;-70
2023/10/26 01:25:21;;;;;;;15.77;14.17;;;10.40;1.00;;;;;;5149595;27;20544;-71
2023/10/26 01:27:48;;;;;;;18.23;16.40;;;10.40;1.00;;;;;;5141357;27;20994;-72
2023/10/26 01:30:16;;;;;;;16.00;14.40;;;10.30;1.00;;;;;;5140355;27;20561;-72
2023/10/26 01:32:43;;;;;;;16.30;14.70;;;10.30;1.00;;;;;;5128147;27;20442;-71
2023/10/26 01:35:10;;;;;;;15.73;14.33;;;10.30;1.00;;;;;;5138417;27;20464;-72
2023/10/26 01:37:39;;;;;;;17.67;15.57;;;10.40;1.00;;;;;;5149452;27;20568;-72
2023/10/26 01:40:09;;;;;;;16.87;15.17;;;10.30;1.00;;;;;;5150219;27;20463;-72
2023/10/26 01:42:36;;;;;;;16.50;14.83;;;10.30;1.00;;;;;;5129345;27;20451;-72
2023/10/26 01:45:03;;;;;;;17.60;15.90;;;10.30;1.00;;;;;;5136307;27;20517;-74
2023/10/26 01:47:30;;;;;;;17.33;15.17;;;10.30;1.00;;;;;;5148274;27;20540;-71
2023/10/26 01:49:59;;;;;;;15.80;14.30;;;10.30;1.00;;;;;;5126710;27;20999;-72
2023/10/26 01:52:26;;;;;;;17.23;15.57;;;10.30;1.00;;;;;;5136226;27;20463;-72
2023/10/26 01:54:53;;;;;;;17.73;15.73;;;10.30;1.00;;;;;;5132493;27;20541;-71
2023/10/26 01:57:21;;;;;;;18.93;17.03;;;10.30;1.00;;;;;;5125391;27;20584;-70
2023/10/26 01:59:48;;;;;;;17.37;15.77;;;10.30;1.00;;;;;;5140323;27;20549;-73
2023/10/26 02:02:15;;;;;;;17.67;15.87;;;10.20;1.00;;;;;;5147370;27;20472;-71
2023/10/26 02:04:41;;;;;;;18.30;16.37;;;10.20;1.00;;;;;;5125255;27;20541;-71
2023/10/26 02:07:08;;;;;;;17.97;16.17;;;10.20;1.00;;;;;;5126720;27;20454;-73
2023/10/26 02:09:35;;;;;;;18.13;16.30;;;10.30;1.00;;;;;;5137049;27;20464;-72
2023/10/26 02:12:02;;;;;;;19.13;16.93;;;10.30;1.00;;;;;;5126884;27;20485;-71
2023/10/26 02:14:30;;;;;;;20.33;18.23;;;10.30;1.00;;;;;;5138086;27;20444;-71
2023/10/26 02:16:57;;;;;;;19.70;17.80;;;10.20;1.00;;;;;;5146239;27;22417;-71
2023/10/26 02:19:24;;;;;;;17.47;15.60;;;10.30;1.00;;;;;;5137381;27;20501;-71
2023/10/26 02:21:51;;;;;;;19.40;17.40;;;10.30;1.00;;;;;;5128555;27;20499;-70
2023/10/26 02:24:18;;;;;;;18.90;16.90;;;10.40;1.00;;;;;;5127273;27;20457;-71
2023/10/26 02:26:45;;;;;;;19.23;17.23;;;10.30;1.00;;;;;;5141520;27;20456;-73
2023/10/26 02:29:12;;;;;;;17.93;16.13;;;10.40;1.00;;;;;;5129193;27;20465;-71
2023/10/26 02:31:41;;;;;;;19.40;17.33;;;10.40;1.00;;;;;;5126278;27;20456;-69
2023/10/26 02:34:08;;;;;;;17.70;15.97;;;10.30;1.00;;;;;;5135654;27;20448;-71
2023/10/26 02:36:35;;;;;;;19.30;17.40;;;10.30;1.00;;;;;;5147379;27;20999;-74
2023/10/26 02:39:02;;;;;;;19.40;17.40;;;10.30;1.00;;;;;;5130835;27;20468;-71
2023/10/26 02:41:29;;;;;;;19.00;17.20;;;10.30;1.00;;;;;;5130332;27;20460;-71
2023/10/26 02:43:56;;;;;;;20.20;18.10;;;10.40;1.00;;;;;;5131798;27;20459;-70
2023/10/26 02:46:24;;;;;;;20.10;18.00;;;10.40;1.00;;;;;;5147904;27;20444;-70
2023/10/26 02:48:52;;;;;;;18.83;16.93;;;10.40;1.00;;;;;;5149040;27;20464;-70
2023/10/26 02:51:19;;;;;;;19.40;17.50;;;10.40;1.00;;;;;;5128742;27;20454;-70
2023/10/26 02:53:46;;;;;;;20.10;17.60;;;10.50;1.00;;;;;;5142256;27;20990;-70
2023/10/26 02:56:13;;;;;;;20.07;17.97;;;10.40;1.00;;;;;;5127176;27;20540;-70
2023/10/26 02:58:40;;;;;;;20.70;17.90;;;10.40;1.00;;;;;;5146814;27;20915;-70
2023/10/26 03:01:07;;;;;;;19.77;17.67;;;10.40;1.00;;;;;;5148293;27;20456;-72
2023/10/26 03:03:34;;;;;;;18.93;16.67;;;10.40;1.00;;;;;;5142001;27;20900;-70
2023/10/26 03:06:02;;;;;;;23.17;19.13;;;10.40;1.00;;;;;;5150200;27;20540;-72
2023/10/26 03:08:29;;;;;;;21.63;19.03;;;10.40;1.00;;;;;;5144889;27;20878;-71
2023/10/26 03:10:56;;;;;;;19.90;17.77;;;10.40;1.00;;;;;;5140064;27;20532;-71
2023/10/26 03:13:23;;;;;;;18.83;16.93;;;10.40;1.00;;;;;;5145304;27;20476;-73
2023/10/26 03:15:50;;;;;;;19.90;17.90;;;10.40;1.00;;;;;;5127674;27;20989;-70
2023/10/26 03:18:16;;;;;;;19.07;17.10;;;10.40;1.00;;;;;;5127488;27;21288;-71
2023/10/26 03:20:43;;;;;;;17.93;16.03;;;10.40;1.00;;;;;;5142032;27;20482;-72
2023/10/26 03:23:12;;;;;;;20.27;18.13;;;10.40;1.00;;;;;;5148660;27;20456;-72
2023/10/26 03:25:39;;;;;;;19.43;17.50;;;10.40;1.00;;;;;;5126987;27;20460;-71
2023/10/26 03:28:05;;;;;;;18.93;17.00;;;10.40;1.00;;;;;;5127892;27;20477;-72
2023/10/26 03:30:32;;;;;;;18.80;17.00;;;10.30;1.00;;;;;;5125928;27;20498;-71
2023/10/26 03:32:59;;;;;;;20.10;18.03;;;10.30;1.00;;;;;;5128809;27;20540;-71
2023/10/26 03:35:26;;;;;;;20.50;18.50;;;10.30;1.00;;;;;;5144710;27;20471;-71
2023/10/26 03:37:53;;;;;;;19.37;17.27;;;10.30;1.00;;;;;;5133896;27;20467;-70
2023/10/26 03:40:22;;;;;;;20.70;18.60;;;10.30;1.00;;;;;;5134261;27;20453;-70
2023/10/26 03:42:49;;;;;;;21.00;18.47;;;10.30;1.00;;;;;;5127271;27;20469;-70
2023/10/26 03:45:16;;;;;;;19.07;17.17;;;10.30;1.00;;;;;;5126532;27;20511;-70
2023/10/26 03:47:44;;;;;;;20.97;17.93;;;10.40;1.00;;;;;;5141397;27;20559;-70
2023/10/26 03:50:11;;;;;;;18.80;16.83;;;10.40;1.00;;;;;;5137038;27;20456;-70
2023/10/26 03:52:38;;;;;;;18.47;16.50;;;10.40;1.00;;;;;;5130845;27;20457;-71
2023/10/26 03:55:07;;;;;;;19.33;17.43;;;10.40;1.00;;;;;;5148943;27;20459;-70
2023/10/26 03:57:35;;;;;;;18.10;16.20;;;10.50;1.00;;;;;;5134633;27;20461;-70
2023/10/26 04:00:03;;;;;;;18.47;16.30;;;10.50;1.00;;;;;;5129069;27;20453;-71
2023/10/26 04:02:30;;;;;;;17.43;15.33;;;10.60;1.00;;;;;;5128185;27;20465;-72
2023/10/26 04:04:57;;;;;;;17.90;16.00;;;10.50;1.00;;;;;;5136006;27;20462;-71
2023/10/26 04:07:24;;;;;;;17.60;15.83;;;10.50;1.00;;;;;;5120655;27;20499;-72
2023/10/26 04:09:51;;;;;;;17.30;15.53;;;10.50;1.00;;;;;;5132421;27;21292;-71
2023/10/26 04:12:18;;;;;;;18.77;16.80;;;10.50;1.00;;;;;;5131208;27;20968;-71
2023/10/26 04:14:46;;;;;;;17.43;15.60;;;10.60;1.00;;;;;;5142562;27;20473;-72
2023/10/26 04:17:15;;;;;;;17.37;15.77;;;10.60;1.00;;;;;;5127765;27;20960;-72
2023/10/26 04:19:42;;;;;;;18.60;16.30;;;10.70;1.00;;;;;;5139192;27;20460;-73
2023/10/26 04:22:10;;;;;;;16.70;15.00;;;10.70;1.00;;;;;;5147737;27;20912;-71
2023/10/26 04:24:37;;;;;;;16.87;15.10;;;10.60;1.00;;;;;;5146784;27;20455;-70
2023/10/26 04:27:04;;;;;;;18.50;15.87;;;10.70;1.00;;;;;;5149008;27;20673;-70
2023/10/26 04:29:34;;;;;;;16.53;14.73;;;10.70;1.00;;;;;;5142257;27;20448;-71
2023/10/26 04:32:02;;;;;;;16.70;14.90;;;10.70;1.00;;;;;;5127143;27;20457;-70
2023/10/26 04:34:30;;;;;;;17.70;15.80;;;10.70;1.00;;;;;;5133495;27;20467;-72
2023/10/26 04:36:57;;;;;;;15.73;14.23;;;10.70;1.00;;;;;;5144950;27;20477;-72
2023/10/26 04:39:24;;;;;;;16.37;14.67;;;10.80;1.00;;;;;;5138637;27;20474;-71
2023/10/26 04:41:51;;;;;;;14.53;13.10;;;10.80;1.00;;;;;;5144704;27;20451;-73
2023/10/26 04:44:18;;;;;;;15.77;14.23;;;10.80;1.00;;;;;;5130700;27;20464;-74
2023/10/26 04:46:45;;;;;;;15.60;14.00;;;10.80;1.00;;;;;;5124050;27;20472;-75
2023/10/26 04:49:14;;;;;;;14.80;13.40;;;10.90;1.00;;;;;;5127109;27;20437;-73
2023/10/26 04:51:41;;;;;;;16.20;14.50;;;10.90;1.00;;;;;;5128054;27;21050;-75
2023/10/26 04:54:08;;;;;;;14.90;13.17;;;10.90;1.00;;;;;;5144152;27;21295;-75
2023/10/26 04:56:35;;;;;;;15.60;14.00;;;11.00;1.00;;;;;;5144488;27;20600;-74
2023/10/26 04:59:02;;;;;;;15.33;13.77;;;11.00;1.00;;;;;;5138103;27;20552;-73
2023/10/26 05:01:29;;;;;;;15.87;13.60;;;11.00;1.00;;;;;;5142172;27;20855;-74
2023/10/26 05:03:56;;;;;;;15.60;14.00;;;11.00;1.00;;;;;;5128325;27;20952;-74
2023/10/26 05:06:24;;;;;;;13.67;12.37;;;11.00;1.00;;;;;;5137118;27;20545;-74
2023/10/26 05:08:51;;;;;;;14.43;12.60;;;11.00;1.00;;;;;;5133870;27;20453;-74
2023/10/26 05:11:18;;;;;;;13.47;12.27;;;11.00;1.00;;;;;;5127436;27;21277;-75
2023/10/26 05:13:45;;;;;;;13.33;11.93;;;11.10;1.00;;;;;;5141464;27;20449;-75
2023/10/26 05:16:12;;;;;;;13.43;12.13;;;11.00;1.00;;;;;;5141302;27;21051;-74
2023/10/26 05:18:40;;;;;;;13.10;11.90;;;11.00;1.00;;;;;;5145367;27;20457;-73
2023/10/26 05:21:07;;;;;;;13.47;11.83;;;11.00;1.00;;;;;;5124388;27;20977;-74
2023/10/26 05:23:35;;;;;;;13.13;11.73;;;11.00;1.00;;;;;;5135577;27;20445;-74
2023/10/26 05:26:02;;;;;;;14.60;13.13;;;11.10;1.00;;;;;;5126425;27;20473;-75
2023/10/26 05:28:29;;;;;;;14.27;12.83;;;11.10;1.00;;;;;;5125046;27;20548;-73
2023/10/26 05:30:56;;;;;;;13.57;12.20;;;11.10;1.00;;;;;;5126636;27;20547;-73
2023/10/26 05:33:23;;;;;;;14.33;12.80;;;11.00;1.00;;;;;;5135641;27;20525;-73
2023/10/26 05:35:50;;;;;;;14.93;13.43;;;11.10;1.00;;;;;;5146832;27;20591;-73
2023/10/26 05:38:19;;;;;;;14.00;12.60;;;11.10;1.00;;;;;;5139618;27;20502;-72
2023/10/26 05:40:55;;;;;;;13.03;11.77;;;11.10;1.00;;;;;;5142390;27;20517;-74
2023/10/26 05:43:22;;;;;;;13.70;12.33;;;11.00;1.00;;;;;;5148547;27;20927;-73
2023/10/26 05:45:49;;;;;;;13.63;12.20;;;11.10;1.00;;;;;;5150541;27;20474;-73
2023/10/26 05:48:19;;;;;;;13.77;12.57;;;11.10;1.00;;;;;;5133684;27;20474;-75
2023/10/26 05:50:46;;;;;;;13.07;11.70;;;11.10;1.00;;;;;;5149168;27;20540;-74
2023/10/26 05:53:13;;;;;;;14.93;13.43;;;11.10;1.00;;;;;;5136218;27;20509;-74
2023/10/26 05:55:40;;;;;;;16.10;14.40;;;11.10;1.00;;;;;;5137977;27;20469;-72
2023/10/26 05:58:09;;;;;;;15.13;13.53;;;11.10;1.00;;;;;;5126050;27;20452;-73
2023/10/26 06:00:37;;;;;;;16.07;14.20;;;11.20;1.00;;;;;;5125259;27;20449;-72
2023/10/26 06:03:04;;;;;;;14.73;13.13;;;11.20;1.00;;;;;;5124697;27;20446;-72
2023/10/26 06:05:31;;;;;;;13.93;12.50;;;11.20;1.00;;;;;;5127683;27;20460;-72
2023/10/26 06:07:58;;;;;;;13.80;12.50;;;11.10;1.00;;;;;;5145611;27;20460;-73
2023/10/26 06:10:25;;;;;;;13.47;12.13;;;11.20;1.00;;;;;;5147492;27;20495;-72
2023/10/26 06:12:52;;;;;;;15.00;13.30;;;11.20;1.00;;;;;;5134109;27;20534;-72
2023/10/26 06:15:21;;;;;;;15.43;13.83;;;11.20;1.00;;;;;;5145408;27;21256;-72
2023/10/26 06:17:48;;;;;;;14.77;13.37;;;11.20;1.00;;;;;;5132920;27;20469;-73
2023/10/26 06:20:16;;;;;;;15.83;14.33;;;11.20;1.00;;;;;;5122536;27;20456;-72
2023/10/26 06:22:43;;;;;;;13.90;12.57;;;11.20;1.00;;;;;;5127040;27;20956;-70
2023/10/26 06:25:10;;;;;;;13.83;12.60;;;11.20;1.00;;;;;;5124667;27;20555;-72
2023/10/26 06:27:37;;;;;;;12.73;11.50;;;11.20;1.00;;;;;;5139313;27;20950;-71
2023/10/26 06:30:06;;;;;;;14.30;12.90;;;11.20;1.00;;;;;;5145002;27;20964;-74
2023/10/26 06:32:36;;;;;;;13.80;11.03;;;11.20;1.00;;;;;;5132398;27;20528;-73
2023/10/26 06:35:05;;;;;;;14.80;13.40;;;11.20;1.00;;;;;;5128941;27;20472;-72
2023/10/26 06:37:32;;;;;;;12.80;11.40;;;11.20;1.00;;;;;;5123315;27;20460;-72
2023/10/26 06:40:03;;;;;;;13.90;12.50;;;11.20;1.00;;;;;;5122638;27;20468;-73
2023/10/26 06:42:30;;;;;;;14.80;13.10;;;11.20;1.00;;;;;;5134273;27;20449;-73
2023/10/26 06:44:57;;;;;;;15.83;14.23;;;11.20;1.00;;;;;;5141682;27;20469;-72
2023/10/26 06:47:25;;;;;;;13.60;12.33;;;11.20;1.00;;;;;;5122896;27;20448;-71
2023/10/26 06:49:53;;;;;;;14.60;12.50;;;11.20;1.00;;;;;;5127846;27;20486;-70
2023/10/26 06:52:20;;;;;;;14.90;13.40;;;11.30;1.00;;;;;;5124772;27;20581;-73
2023/10/26 06:54:48;;;;;;;13.97;12.57;;;11.20;1.00;;;;;;5128457;27;20465;-72
2023/10/26 06:57:16;;;;;;;15.30;13.77;;;11.30;1.00;;;;;;5126527;27;20904;-72
2023/10/26 06:59:42;;;;;;;13.53;11.97;;;11.30;1.00;;;;;;5127582;27;20557;-70
2023/10/26 07:02:10;;;;;;;13.13;11.77;;;11.30;1.00;;;;;;5126939;27;20535;-72
2023/10/26 07:04:37;;;;;;;14.40;12.97;;;11.30;1.00;;;;;;5138118;27;20464;-72
2023/10/26 07:07:06;;;;;;;16.10;13.50;;;11.30;1.00;;;;;;5131073;27;20510;-72
2023/10/26 07:09:33;;;;;;;14.50;13.00;;;11.20;1.00;;;;;;5128111;27;20550;-72
2023/10/26 07:12:00;;;;;;;13.77;12.33;;;11.20;1.00;;;;;;5128349;27;20956;-72
2023/10/26 07:14:27;;;;;;;14.17;12.73;;;11.20;1.00;;;;;;5125828;27;20554;-71
2023/10/26 07:16:54;;;;;;;15.17;13.30;;;11.20;1.00;;;;;;5122346;27;20520;-71
2023/10/26 07:19:22;;;;;;;13.60;12.30;;;11.30;1.00;;;;;;5133029;27;21294;-71
2023/10/26 07:21:49;;;;;;;15.57;11.57;;;11.30;1.00;;;;;;5142659;27;20496;-71
2023/10/26 07:24:17;;;;;;;14.97;12.73;;;11.20;1.00;;;;;;5148824;27;20480;-71
2023/10/26 07:26:44;;;;;;;15.55;14.05;;;11.20;1.00;;;;;;5130185;27;20480;-73
2023/10/26 07:29:11;;;;;;;15.90;13.37;;;11.30;1.00;;;;;;5126854;27;21079;-74
2023/10/26 07:31:38;;;;;;;13.07;11.87;;;11.30;1.00;;;;;;5125782;27;20990;-70
2023/10/26 07:34:05;;;;;;;13.80;11.83;;;11.30;1.00;;;;;;5127059;27;20472;-71
2023/10/26 07:36:32;;;;;;;12.93;11.73;;;11.30;1.00;;;;;;5135169;27;21451;-73
2023/10/26 07:39:00;;;;;;;18.17;16.53;;;11.30;1.00;;;;;;5131132;27;20454;-71
2023/10/26 07:41:28;;;;;;;14.60;13.20;;;11.30;1.00;;;;;;5130294;27;20556;-70
2023/10/26 07:43:55;;;;;;;15.73;14.07;;;11.30;1.00;;;;;;5135457;27;20495;-71
2023/10/26 07:46:22;;;;;;;12.87;11.57;;;11.30;1.00;;;;;;5139408;27;20545;-72
2023/10/26 07:48:49;;;;;;;14.30;13.00;;;11.30;1.00;;;;;;5131115;27;20464;-71
2023/10/26 07:51:16;;;;;;;14.63;12.47;;;11.30;1.00;;;;;;5134333;27;20499;-71
2023/10/26 07:53:43;;;;;;;21.10;19.07;;;11.30;1.00;;;;;;5133946;27;20432;-70
2023/10/26 07:56:10;;;;;;;13.27;11.87;;;11.30;1.00;;;;;;5151064;27;20520;-72
2023/10/26 07:58:38;;;;;;;12.60;11.30;;;11.30;1.00;;;;;;5148017;27;20553;-70
2023/10/26 08:01:10;;;;;;;12.97;11.70;;;11.30;1.00;;;;;;5146744;27;20531;-72
2023/10/26 08:03:37;;;;;;;14.23;12.63;;;11.30;1.00;;;;;;5139260;27;20504;-70
2023/10/26 08:06:05;;;;;;;12.40;11.20;;;11.30;1.00;;;;;;5126950;27;20487;-70
2023/10/26 08:08:32;;;;;;;12.57;11.37;;;11.30;1.00;;;;;;5129596;27;20471;-72
2023/10/26 08:11:08;;;;;;;12.60;11.30;;;11.30;1.00;;;;;;5147499;27;20532;-70
2023/10/26 08:13:35;;;;;;;14.53;13.03;;;11.20;1.00;;;;;;5135861;27;20456;-72
2023/10/26 08:16:04;;;;;;;13.60;12.20;;;11.20;1.00;;;;;;5131841;27;20477;-72
2023/10/26 08:18:31;;;;;;;14.03;12.60;;;11.30;1.00;;;;;;5129065;27;26446;-71
2023/10/26 08:20:58;;;;;;;14.70;13.40;;;11.30;1.00;;;;;;5126109;27;20480;-72
2023/10/26 08:23:29;;;;;;;16.80;13.67;;;11.40;1.00;;;;;;5146489;27;20999;-71
2023/10/26 08:25:56;;;;;;;13.27;12.07;;;11.40;1.00;;;;;;5144188;27;20975;-71
2023/10/26 08:28:23;;;;;;;13.10;11.77;;;11.40;1.00;;;;;;5130020;27;20458;-73
2023/10/26 08:30:52;;;;;;;13.30;12.10;;;11.40;1.00;;;;;;5128277;27;20482;-71
2023/10/26 08:33:20;;;;;;;17.80;12.27;;;11.40;1.00;;;;;;5126131;27;20559;-71
2023/10/26 08:35:50;;;;;;;12.60;11.30;;;11.40;1.00;;;;;;5150491;27;21226;-70
2023/10/26 08:38:18;;;;;;;12.80;11.30;;;11.40;1.00;;;;;;5139029;27;20485;-71
2023/10/26 08:40:50;;;;;;;13.67;12.27;;;11.50;1.00;;;;;;5140558;27;20460;-71
2023/10/26 08:43:18;;;;;;;14.50;13.20;;;11.50;1.00;;;;;;5131698;27;20585;-72
2023/10/26 08:45:45;;;;;;;15.80;13.43;;;11.50;1.00;;;;;;5128545;27;20459;-71
2023/10/26 08:48:15;;;;;;;13.17;11.97;;;11.50;1.00;;;;;;5146937;27;20536;-73
2023/10/26 08:50:45;;;;;;;13.33;12.00;;;11.50;1.00;;;;;;5131687;27;20561;-73
2023/10/26 08:53:12;;;;;;;12.57;11.23;;;11.50;1.00;;;;;;5124829;27;20922;-72
2023/10/26 08:55:40;;;;;;;12.73;11.50;;;11.60;1.00;;;;;;5124816;27;20485;-71
2023/10/26 08:58:07;;;;;;;12.13;10.63;;;11.60;1.00;;;;;;5125404;27;20493;-71
2023/10/26 09:00:36;;;;;;;18.23;16.43;;;11.60;1.00;;;;;;5123894;27;20519;-72
2023/10/26 09:03:03;;;;;;;12.93;11.57;;;11.60;1.00;;;;;;5127375;27;20497;-74
2023/10/26 09:05:31;;;;;;;17.83;16.03;;;11.60;1.00;;;;;;5125270;27;20902;-71
2023/10/26 09:08:15;;;;;;;13.30;11.90;;;11.60;1.00;;;;;;5136567;27;20473;-71
2023/10/26 09:10:42;;;;;;;14.37;12.87;;;11.70;1.00;;;;;;5127600;27;20476;-71
2023/10/26 09:13:09;;;;;;;13.43;11.90;;;11.70;1.00;;;;;;5126860;27;20972;-71
2023/10/26 09:15:48;;;;;;;11.63;10.43;;;11.70;1.00;;;;;;5127039;27;20449;-71
2023/10/26 09:18:15;;;;;;;12.20;10.90;;;11.70;1.00;;;;;;5125955;27;20458;-72
2023/10/26 09:20:42;;;;;;;11.90;10.47;;;11.70;1.00;;;;;;5129893;27;20960;-72
2023/10/26 09:23:28;;;;;;;11.37;10.17;;;11.70;1.00;;;;;;5146408;27;20502;-71
2023/10/26 09:25:58;;;;;;;13.50;12.20;;;11.80;1.00;;;;;;5125986;27;20460;-72
2023/10/26 09:28:25;;;;;;;12.70;11.40;;;11.70;1.00;;;;;;5146538;27;20963;-74
2023/10/26 09:30:57;;;;;;;14.27;12.80;;;11.70;1.00;;;;;;5143718;27;20542;-71
2023/10/26 09:33:25;;;;;;;14.23;12.90;;;11.70;1.00;;;;;;5125247;27;20476;-72
2023/10/26 09:35:53;;;;;;;13.80;12.40;;;11.80;1.00;;;;;;5129993;27;20925;-72
2023/10/26 09:38:35;;;;;;;11.70;10.60;;;11.90;1.00;;;;;;5142385;27;20475;-72
2023/10/26 09:41:06;;;;;;;13.33;11.93;;;11.90;1.00;;;;;;5145531;27;20547;-73
2023/10/26 09:43:32;;;;;;;11.70;10.60;;;12.00;1.00;;;;;;5136272;27;20545;-71
2023/10/26 09:46:00;;;;;;;12.47;11.20;;;11.90;1.00;;;;;;5127830;27;21692;-72
2023/10/26 09:48:27;;;;;;;12.70;11.40;;;11.90;1.00;;;;;;5127069;27;20520;-72
2023/10/26 09:50:54;;;;;;;10.10;9.10;;;11.90;1.00;;;;;;5124346;27;20547;-72
2023/10/26 09:53:22;;;;;;;10.97;9.80;;;12.00;1.00;;;;;;5128231;27;20855;-71
2023/10/26 09:55:51;;;;;;;9.90;8.90;;;12.00;1.00;;;;;;5138540;27;20972;-75
2023/10/26 09:58:20;;;;;;;11.00;9.90;;;12.10;1.00;;;;;;5138528;27;20484;-70
2023/10/26 10:00:47;;;;;;;10.97;9.07;;;12.10;1.00;;;;;;5128706;27;20549;-72
2023/10/26 10:03:17;;;;;;;10.30;9.03;;;12.10;1.00;;;;;;5127362;27;20561;-74
2023/10/26 10:05:45;;;;;;;11.53;10.27;;;12.20;1.00;;;;;;5127414;27;20472;-71
2023/10/26 10:08:12;;;;;;;9.97;8.77;;;12.20;1.00;;;;;;5127433;27;20498;-73
2023/10/26 10:11:15;;;;;;;12.67;10.03;;;12.20;1.00;;;;;;5123486;27;20535;-70
2023/10/26 10:13:42;;;;;;;9.50;8.60;;;12.20;1.00;;;;;;5120094;27;21598;-71
2023/10/26 10:16:54;;;;;;;11.10;9.90;;;12.30;1.00;;;;;;5121629;27;20443;-74
2023/10/26 10:19:22;;;;;;;9.77;8.60;;;12.30;1.00;;;;;;5123758;27;20523;-71
2023/10/26 10:21:51;;;;;;;9.53;8.63;;;12.20;1.00;;;;;;5125142;27;20965;-71
2023/10/26 10:24:53;;;;;;;10.30;9.17;;;12.20;1.00;;;;;;5125950;27;20478;-70
2023/10/26 10:27:20;;;;;;;11.30;9.37;;;12.20;1.00;;;;;;5119047;27;20872;-73
2023/10/26 10:29:47;;;;;;;10.13;8.93;;;12.20;1.00;;;;;;5126992;27;20581;-71
2023/10/26 10:32:51;;;;;;;8.87;7.97;;;12.20;1.00;;;;;;5126402;27;20494;-72
2023/10/26 10:35:43;;;;;;;9.00;8.10;;;12.30;1.00;;;;;;5125188;27;20505;-74
2023/10/26 10:38:23;;;;;;;9.93;7.50;;;12.30;1.00;;;;;;5127277;27;20453;-72
2023/10/26 10:41:16;;;;;;;8.90;8.07;;;12.50;1.00;;;;;;5125696;27;20562;-71
2023/10/26 10:43:44;;;;;;;9.80;8.80;;;12.50;1.00;;;;;;5126454;27;20490;-72
2023/10/26 10:46:16;;;;;;;11.93;8.50;;;12.60;1.00;;;;;;5125762;27;20817;-72
2023/10/26 10:48:58;;;;;;;9.63;8.60;;;12.60;1.00;;;;;;5126276;27;20461;-71
2023/10/26 10:51:29;;;;;;;11.67;10.40;;;12.60;1.00;;;;;;5126477;27;20558;-73
2023/10/26 10:53:57;;;;;;;10.57;9.23;;;12.70;1.00;;;;;;5129833;27;20452;-73
2023/10/26 10:56:24;;;;;;;10.87;9.80;;;12.70;1.00;;;;;;5123761;27;20478;-73
2023/10/26 10:58:52;;;;;;;11.47;10.13;;;12.60;1.00;;;;;;5128195;27;20482;-73
2023/10/26 11:01:20;;;;;;;11.40;10.30;;;12.60;1.00;;;;;;5125599;27;20941;-72
2023/10/26 11:03:50;;;;;;;11.57;10.47;;;12.60;1.00;;;;;;5126691;27;20450;-72
2023/10/26 11:06:20;;;;;;;11.77;10.67;;;12.60;1.00;;;;;;5123888;27;20466;-72
2023/10/26 11:08:47;;;;;;;12.77;11.50;;;12.60;1.00;;;;;;5125527;27;20511;-72
2023/10/26 11:11:27;;;;;;;13.33;11.83;;;12.60;1.00;;;;;;5127710;27;21028;-73
2023/10/26 11:14:08;;;;;;;12.90;11.60;;;12.60;1.00;;;;;;5125668;27;20459;-73
2023/10/26 11:16:37;;;;;;;12.63;11.00;;;12.50;1.00;;;;;;5121747;27;20494;-72
2023/10/26 11:19:04;;;;;;;12.73;11.53;;;12.50;1.00;;;;;;5129671;27;20538;-72
2023/10/26 11:21:33;;;;;;;13.20;11.97;;;12.50;1.00;;;;;;5129750;27;20556;-71
2023/10/26 11:24:01;;;;;;;13.37;12.17;;;12.50;1.00;;;;;;5126829;27;20509;-72
2023/10/26 11:26:28;;;;;;;12.80;11.50;;;12.50;1.00;;;;;;5126007;27;20474;-72
2023/10/26 11:28:56;;;;;;;13.77;12.43;;;12.60;1.00;;;;;;5127991;27;20461;-72
2023/10/26 11:31:42;;;;;;;51.63;43.43;;;12.50;1.00;;;;;;5125707;27;20485;-72
2023/10/26 11:34:10;;;;;;;15.20;13.60;;;12.50;1.00;;;;;;5130203;27;20445;-73
2023/10/26 11:36:39;;;;;;;13.97;12.67;;;12.50;1.00;;;;;;5125470;27;20548;-72
2023/10/26 11:39:06;;;;;;;13.37;12.07;;;12.50;1.00;;;;;;5126701;27;20878;-73
2023/10/26 11:41:36;;;;;;;13.83;12.53;;;12.50;1.00;;;;;;5126159;27;21793;-72
2023/10/26 11:44:03;;;;;;;14.00;12.63;;;12.50;1.00;;;;;;5125265;27;20492;-72
2023/10/26 11:46:32;;;;;;;14.60;13.20;;;12.50;1.00;;;;;;5129092;27;21004;-73
2023/10/26 11:48:59;;;;;;;14.77;12.73;;;12.50;1.00;;;;;;5130505;27;20529;-72
2023/10/26 11:51:27;;;;;;;13.37;12.07;;;12.50;1.00;;;;;;5126128;27;21049;-73
2023/10/26 11:53:56;;;;;;;14.23;12.80;;;12.50;1.00;;;;;;5131608;27;20498;-72
2023/10/26 11:56:23;;;;;;;13.93;12.53;;;12.50;1.00;;;;;;5131502;27;20496;-72
2023/10/26 11:58:50;;;;;;;14.23;12.77;;;12.50;1.00;;;;;;5127782;27;20461;-72
2023/10/26 12:01:17;;;;;;;14.47;13.00;;;12.40;1.00;;;;;;5125602;27;20952;-72
2023/10/26 12:03:45;;;;;;;14.90;13.20;;;12.30;1.00;;;;;;5125079;27;20461;-71
2023/10/26 12:06:13;;;;;;;17.33;13.00;;;12.40;1.00;;;;;;5125024;27;21246;-71
2023/10/26 12:08:40;;;;;;;14.97;13.63;;;12.40;1.00;;;;;;5130538;27;20633;-72
2023/10/26 12:11:09;;;;;;;13.23;11.97;;;12.30;1.00;;;;;;5130272;27;20581;-72
2023/10/26 12:13:36;;;;;;;17.70;15.70;;;12.30;1.00;;;;;;5134333;27;20485;-71
2023/10/26 12:16:04;;;;;;;16.47;14.63;;;12.30;1.00;;;;;;5141396;27;20460;-72
2023/10/26 12:18:31;;;;;;;14.20;12.90;;;12.40;1.00;;;;;;5131793;27;20522;-72
2023/10/26 12:20:57;;;;;;;17.77;14.10;;;12.40;1.00;;;;;;5132296;27;20464;-71
2023/10/26 12:23:24;;;;;;;16.80;13.47;;;12.40;1.00;;;;;;5137243;27;20457;-70
2023/10/26 12:25:51;;;;;;;14.83;13.33;;;12.40;1.00;;;;;;5131161;27;20465;-71
2023/10/26 12:28:20;;;;;;;14.43;12.93;;;12.50;1.00;;;;;;5140418;27;20464;-70
2023/10/26 12:30:49;;;;;;;17.60;13.83;;;12.50;1.00;;;;;;5147657;27;20493;-71
2023/10/26 12:33:16;;;;;;;29.37;19.90;;;12.50;1.00;;;;;;5128710;27;20458;-71
2023/10/26 12:35:43;;;;;;;15.97;14.17;;;12.50;1.00;;;;;;5130106;27;20475;-72
2023/10/26 12:38:10;;;;;;;21.03;14.97;;;12.50;1.00;;;;;;5141752;27;22140;-74
2023/10/26 12:40:37;;;;;;;16.30;14.60;;;12.50;1.00;;;;;;5143300;27;20953;-73
2023/10/26 12:43:04;;;;;;;15.33;13.80;;;12.50;1.00;;;;;;5135755;27;21033;-74
2023/10/26 12:45:33;;;;;;;14.63;13.17;;;12.50;1.00;;;;;;5129065;27;20470;-72